sensor_id;sensor_type;location;lat;lon;timestamp;P1;durP1;ratioP1;P2;durP2;ratioP2
35675;SDS011;21790;42.668;23.298;2023-03-14T00:01:45;44.13;;;21.38;;
35675;SDS011;21790;42.668;23.298;2023-03-14T00:04:12;49.90;;;20.63;;
35675;SDS011;21790;42.668;23.298;2023-03-14T00:06:38;45.67;;;18.40;;
35675;SDS011;21790;42.668;23.298;2023-03-14T00:09:04;42.72;;;18.90;;
35675;SDS011;21790;42.668;23.298;2023-03-14T00:11:32;43.92;;;19.60;;
35675;SDS011;21790;42.668;23.298;2023-03-14T00:13:58;40.58;;;18.00;;
35675;SDS011;21790;42.668;23.298;2023-03-14T00:16:25;41.80;;;17.42;;
35675;SDS011;21790;42.668;23.298;2023-03-14T00:18:51;42.22;;;17.92;;
35675;SDS011;21790;42.668;23.298;2023-03-14T00:21:17;45.15;;;17.52;;
35675;SDS011;21790;42.668;23.298;2023-03-14T00:23:43;39.47;;;18.20;;
35675;SDS011;21790;42.668;23.298;2023-03-14T00:26:12;35.88;;;17.40;;
35675;SDS011;21790;42.668;23.298;2023-03-14T00:28:40;34.80;;;16.60;;
35675;SDS011;21790;42.668;23.298;2023-03-14T00:31:08;39.47;;;16.88;;
35675;SDS011;21790;42.668;23.298;2023-03-14T00:33:35;35.80;;;16.80;;
35675;SDS011;21790;42.668;23.298;2023-03-14T00:36:04;32.05;;;15.20;;
35675;SDS011;21790;42.668;23.298;2023-03-14T00:38:34;34.95;;;15.98;;
35675;SDS011;21790;42.668;23.298;2023-03-14T00:41:08;34.63;;;15.90;;
35675;SDS011;21790;42.668;23.298;2023-03-14T00:43:36;37.47;;;15.57;;
35675;SDS011;21790;42.668;23.298;2023-03-14T00:46:02;32.03;;;15.88;;
35675;SDS011;21790;42.668;23.298;2023-03-14T00:48:28;36.42;;;16.77;;
35675;SDS011;21790;42.668;23.298;2023-03-14T00:50:54;33.50;;;16.33;;
35675;SDS011;21790;42.668;23.298;2023-03-14T00:53:20;33.35;;;16.00;;
35675;SDS011;21790;42.668;23.298;2023-03-14T00:55:46;32.78;;;16.35;;
35675;SDS011;21790;42.668;23.298;2023-03-14T00:58:14;34.47;;;16.65;;
35675;SDS011;21790;42.668;23.298;2023-03-14T01:00:42;35.03;;;16.60;;
35675;SDS011;21790;42.668;23.298;2023-03-14T01:03:13;38.25;;;17.52;;
35675;SDS011;21790;42.668;23.298;2023-03-14T01:05:41;36.15;;;16.30;;
35675;SDS011;21790;42.668;23.298;2023-03-14T01:08:08;31.67;;;15.48;;
35675;SDS011;21790;42.668;23.298;2023-03-14T01:10:39;34.50;;;15.88;;
35675;SDS011;21790;42.668;23.298;2023-03-14T01:13:06;39.42;;;15.13;;
35675;SDS011;21790;42.668;23.298;2023-03-14T01:15:33;33.53;;;15.55;;
35675;SDS011;21790;42.668;23.298;2023-03-14T01:18:02;29.95;;;15.65;;
35675;SDS011;21790;42.668;23.298;2023-03-14T01:20:29;33.28;;;17.08;;
35675;SDS011;21790;42.668;23.298;2023-03-14T01:22:55;37.10;;;17.63;;
35675;SDS011;21790;42.668;23.298;2023-03-14T01:25:21;37.60;;;16.50;;
35675;SDS011;21790;42.668;23.298;2023-03-14T01:27:49;33.47;;;16.17;;
35675;SDS011;21790;42.668;23.298;2023-03-14T01:30:15;30.50;;;15.65;;
35675;SDS011;21790;42.668;23.298;2023-03-14T01:32:41;31.83;;;16.75;;
35675;SDS011;21790;42.668;23.298;2023-03-14T01:35:07;36.40;;;17.02;;
35675;SDS011;21790;42.668;23.298;2023-03-14T01:37:33;37.13;;;17.52;;
35675;SDS011;21790;42.668;23.298;2023-03-14T01:39:59;31.10;;;16.30;;
35675;SDS011;21790;42.668;23.298;2023-03-14T01:42:24;31.48;;;16.45;;
35675;SDS011;21790;42.668;23.298;2023-03-14T01:44:52;36.03;;;15.07;;
35675;SDS011;21790;42.668;23.298;2023-03-14T01:47:23;29.35;;;15.10;;
35675;SDS011;21790;42.668;23.298;2023-03-14T01:49:51;34.38;;;15.63;;
35675;SDS011;21790;42.668;23.298;2023-03-14T01:52:24;29.48;;;16.00;;
35675;SDS011;21790;42.668;23.298;2023-03-14T01:54:53;30.10;;;15.35;;
35675;SDS011;21790;42.668;23.298;2023-03-14T01:57:27;31.63;;;16.17;;
35675;SDS011;21790;42.668;23.298;2023-03-14T02:00:13;30.25;;;15.52;;
35675;SDS011;21790;42.668;23.298;2023-03-14T02:02:42;31.52;;;16.98;;
35675;SDS011;21790;42.668;23.298;2023-03-14T02:05:11;33.65;;;16.42;;
35675;SDS011;21790;42.668;23.298;2023-03-14T02:10:19;37.35;;;16.77;;
35675;SDS011;21790;42.668;23.298;2023-03-14T02:12:48;33.95;;;16.52;;
35675;SDS011;21790;42.668;23.298;2023-03-14T02:15:15;27.05;;;14.60;;
35675;SDS011;21790;42.668;23.298;2023-03-14T02:17:44;27.80;;;16.38;;
35675;SDS011;21790;42.668;23.298;2023-03-14T02:23:03;28.85;;;14.13;;
35675;SDS011;21790;42.668;23.298;2023-03-14T02:28:01;27.75;;;14.50;;
35675;SDS011;21790;42.668;23.298;2023-03-14T02:30:28;29.50;;;14.15;;
35675;SDS011;21790;42.668;23.298;2023-03-14T02:32:57;27.88;;;15.07;;
35675;SDS011;21790;42.668;23.298;2023-03-14T02:35:29;30.30;;;14.90;;
35675;SDS011;21790;42.668;23.298;2023-03-14T02:40:41;30.20;;;15.18;;
35675;SDS011;21790;42.668;23.298;2023-03-14T02:43:08;30.02;;;15.00;;
35675;SDS011;21790;42.668;23.298;2023-03-14T02:45:36;28.33;;;14.43;;
35675;SDS011;21790;42.668;23.298;2023-03-14T02:48:06;31.27;;;15.15;;
35675;SDS011;21790;42.668;23.298;2023-03-14T02:50:36;25.77;;;15.43;;
35675;SDS011;21790;42.668;23.298;2023-03-14T02:53:03;36.30;;;15.27;;
35675;SDS011;21790;42.668;23.298;2023-03-14T02:55:31;29.90;;;16.15;;
35675;SDS011;21790;42.668;23.298;2023-03-14T02:57:57;26.42;;;15.32;;
35675;SDS011;21790;42.668;23.298;2023-03-14T03:00:22;28.08;;;14.55;;
35675;SDS011;21790;42.668;23.298;2023-03-14T03:02:50;29.00;;;14.77;;
35675;SDS011;21790;42.668;23.298;2023-03-14T03:05:16;32.33;;;14.15;;
35675;SDS011;21790;42.668;23.298;2023-03-14T03:07:41;30.52;;;14.25;;
35675;SDS011;21790;42.668;23.298;2023-03-14T03:10:10;37.03;;;15.13;;
35675;SDS011;21790;42.668;23.298;2023-03-14T03:12:39;29.70;;;15.02;;
35675;SDS011;21790;42.668;23.298;2023-03-14T03:15:07;35.42;;;14.82;;
35675;SDS011;21790;42.668;23.298;2023-03-14T03:17:33;25.52;;;13.80;;
35675;SDS011;21790;42.668;23.298;2023-03-14T03:20:01;31.40;;;14.48;;
35675;SDS011;21790;42.668;23.298;2023-03-14T03:22:26;28.20;;;13.70;;
35675;SDS011;21790;42.668;23.298;2023-03-14T03:24:52;35.30;;;15.13;;
35675;SDS011;21790;42.668;23.298;2023-03-14T03:27:17;30.33;;;15.18;;
35675;SDS011;21790;42.668;23.298;2023-03-14T03:29:43;32.63;;;15.40;;
35675;SDS011;21790;42.668;23.298;2023-03-14T03:32:09;26.67;;;14.65;;
35675;SDS011;21790;42.668;23.298;2023-03-14T03:34:35;32.35;;;15.95;;
35675;SDS011;21790;42.668;23.298;2023-03-14T03:37:00;30.40;;;14.90;;
35675;SDS011;21790;42.668;23.298;2023-03-14T03:39:28;29.02;;;14.32;;
35675;SDS011;21790;42.668;23.298;2023-03-14T03:41:55;30.60;;;14.68;;
35675;SDS011;21790;42.668;23.298;2023-03-14T03:44:20;29.55;;;14.80;;
35675;SDS011;21790;42.668;23.298;2023-03-14T03:46:49;28.60;;;14.18;;
35675;SDS011;21790;42.668;23.298;2023-03-14T03:49:15;26.75;;;13.20;;
35675;SDS011;21790;42.668;23.298;2023-03-14T03:51:40;26.90;;;13.18;;
35675;SDS011;21790;42.668;23.298;2023-03-14T03:54:06;35.17;;;14.80;;
35675;SDS011;21790;42.668;23.298;2023-03-14T03:56:32;27.52;;;13.00;;
35675;SDS011;21790;42.668;23.298;2023-03-14T03:58:58;31.52;;;13.93;;
35675;SDS011;21790;42.668;23.298;2023-03-14T04:01:25;29.55;;;14.85;;
35675;SDS011;21790;42.668;23.298;2023-03-14T04:03:50;26.73;;;13.95;;
35675;SDS011;21790;42.668;23.298;2023-03-14T04:06:16;29.33;;;14.38;;
35675;SDS011;21790;42.668;23.298;2023-03-14T04:08:42;35.45;;;15.90;;
35675;SDS011;21790;42.668;23.298;2023-03-14T04:11:08;30.15;;;16.33;;
35675;SDS011;21790;42.668;23.298;2023-03-14T04:13:36;34.05;;;15.88;;
35675;SDS011;21790;42.668;23.298;2023-03-14T04:16:01;31.27;;;15.75;;
35675;SDS011;21790;42.668;23.298;2023-03-14T04:18:27;27.27;;;15.95;;
35675;SDS011;21790;42.668;23.298;2023-03-14T04:20:56;31.20;;;16.75;;
35675;SDS011;21790;42.668;23.298;2023-03-14T04:23:23;29.77;;;14.98;;
35675;SDS011;21790;42.668;23.298;2023-03-14T04:25:52;26.45;;;13.95;;
35675;SDS011;21790;42.668;23.298;2023-03-14T04:28:19;30.95;;;15.70;;
35675;SDS011;21790;42.668;23.298;2023-03-14T04:30:47;23.48;;;13.18;;
35675;SDS011;21790;42.668;23.298;2023-03-14T04:33:13;22.92;;;12.73;;
35675;SDS011;21790;42.668;23.298;2023-03-14T04:35:42;24.38;;;13.02;;
35675;SDS011;21790;42.668;23.298;2023-03-14T04:38:09;25.70;;;13.90;;
35675;SDS011;21790;42.668;23.298;2023-03-14T04:40:36;26.80;;;13.45;;
35675;SDS011;21790;42.668;23.298;2023-03-14T04:43:05;24.80;;;13.85;;
35675;SDS011;21790;42.668;23.298;2023-03-14T04:45:33;29.38;;;14.50;;
35675;SDS011;21790;42.668;23.298;2023-03-14T04:47:59;27.15;;;14.00;;
35675;SDS011;21790;42.668;23.298;2023-03-14T04:50:24;31.95;;;13.25;;
35675;SDS011;21790;42.668;23.298;2023-03-14T04:52:50;31.10;;;14.38;;
35675;SDS011;21790;42.668;23.298;2023-03-14T04:55:15;26.77;;;13.13;;
35675;SDS011;21790;42.668;23.298;2023-03-14T04:57:41;30.95;;;13.45;;
35675;SDS011;21790;42.668;23.298;2023-03-14T05:00:07;32.03;;;13.77;;
35675;SDS011;21790;42.668;23.298;2023-03-14T05:02:33;34.15;;;13.57;;
35675;SDS011;21790;42.668;23.298;2023-03-14T05:04:59;29.33;;;12.98;;
35675;SDS011;21790;42.668;23.298;2023-03-14T05:07:25;36.17;;;13.70;;
35675;SDS011;21790;42.668;23.298;2023-03-14T05:09:50;33.05;;;14.18;;
35675;SDS011;21790;42.668;23.298;2023-03-14T05:12:17;29.65;;;13.52;;
35675;SDS011;21790;42.668;23.298;2023-03-14T05:14:43;31.23;;;14.45;;
35675;SDS011;21790;42.668;23.298;2023-03-14T05:17:08;37.40;;;13.90;;
35675;SDS011;21790;42.668;23.298;2023-03-14T05:19:34;34.08;;;13.57;;
35675;SDS011;21790;42.668;23.298;2023-03-14T05:22:00;30.45;;;13.70;;
35675;SDS011;21790;42.668;23.298;2023-03-14T05:24:25;28.42;;;14.55;;
35675;SDS011;21790;42.668;23.298;2023-03-14T05:26:51;27.48;;;14.32;;
35675;SDS011;21790;42.668;23.298;2023-03-14T05:29:16;35.30;;;15.52;;
35675;SDS011;21790;42.668;23.298;2023-03-14T05:31:42;44.63;;;15.88;;
35675;SDS011;21790;42.668;23.298;2023-03-14T05:34:07;58.33;;;18.70;;
35675;SDS011;21790;42.668;23.298;2023-03-14T05:36:33;36.67;;;16.13;;
35675;SDS011;21790;42.668;23.298;2023-03-14T05:38:58;48.42;;;16.40;;
35675;SDS011;21790;42.668;23.298;2023-03-14T05:41:24;41.40;;;15.55;;
35675;SDS011;21790;42.668;23.298;2023-03-14T05:43:49;38.65;;;15.45;;
35675;SDS011;21790;42.668;23.298;2023-03-14T05:46:15;35.58;;;14.57;;
35675;SDS011;21790;42.668;23.298;2023-03-14T05:48:40;43.47;;;17.08;;
35675;SDS011;21790;42.668;23.298;2023-03-14T05:51:06;33.03;;;15.23;;
35675;SDS011;21790;42.668;23.298;2023-03-14T05:53:31;27.85;;;14.85;;
35675;SDS011;21790;42.668;23.298;2023-03-14T05:55:57;24.92;;;14.73;;
35675;SDS011;21790;42.668;23.298;2023-03-14T05:58:22;33.22;;;15.70;;
35675;SDS011;21790;42.668;23.298;2023-03-14T06:00:48;29.58;;;13.77;;
35675;SDS011;21790;42.668;23.298;2023-03-14T06:03:13;31.63;;;15.45;;
35675;SDS011;21790;42.668;23.298;2023-03-14T06:05:39;29.30;;;15.30;;
35675;SDS011;21790;42.668;23.298;2023-03-14T06:08:05;36.35;;;17.42;;
35675;SDS011;21790;42.668;23.298;2023-03-14T06:10:30;35.55;;;16.38;;
35675;SDS011;21790;42.668;23.298;2023-03-14T06:12:56;27.67;;;15.45;;
35675;SDS011;21790;42.668;23.298;2023-03-14T06:15:21;27.52;;;15.32;;
35675;SDS011;21790;42.668;23.298;2023-03-14T06:17:47;31.63;;;15.73;;
35675;SDS011;21790;42.668;23.298;2023-03-14T06:20:12;32.45;;;16.55;;
35675;SDS011;21790;42.668;23.298;2023-03-14T06:22:38;36.40;;;18.33;;
35675;SDS011;21790;42.668;23.298;2023-03-14T06:25:05;28.63;;;15.30;;
35675;SDS011;21790;42.668;23.298;2023-03-14T06:27:31;25.92;;;15.63;;
35675;SDS011;21790;42.668;23.298;2023-03-14T06:29:57;32.20;;;15.50;;
35675;SDS011;21790;42.668;23.298;2023-03-14T06:32:23;30.02;;;14.65;;
35675;SDS011;21790;42.668;23.298;2023-03-14T06:34:49;27.35;;;14.30;;
35675;SDS011;21790;42.668;23.298;2023-03-14T06:37:15;20.20;;;11.98;;
35675;SDS011;21790;42.668;23.298;2023-03-14T06:39:41;25.45;;;12.60;;
35675;SDS011;21790;42.668;23.298;2023-03-14T06:42:09;29.65;;;13.90;;
35675;SDS011;21790;42.668;23.298;2023-03-14T06:44:34;24.98;;;14.73;;
35675;SDS011;21790;42.668;23.298;2023-03-14T06:47:00;29.10;;;14.02;;
35675;SDS011;21790;42.668;23.298;2023-03-14T06:49:26;33.28;;;15.30;;
35675;SDS011;21790;42.668;23.298;2023-03-14T06:51:51;25.50;;;14.40;;
35675;SDS011;21790;42.668;23.298;2023-03-14T06:54:17;29.73;;;15.77;;
35675;SDS011;21790;42.668;23.298;2023-03-14T06:56:42;28.08;;;15.32;;
35675;SDS011;21790;42.668;23.298;2023-03-14T06:59:08;26.25;;;14.23;;
35675;SDS011;21790;42.668;23.298;2023-03-14T07:01:33;26.25;;;14.35;;
35675;SDS011;21790;42.668;23.298;2023-03-14T07:04:00;25.95;;;13.93;;
35675;SDS011;21790;42.668;23.298;2023-03-14T07:06:26;24.52;;;14.60;;
35675;SDS011;21790;42.668;23.298;2023-03-14T07:08:54;29.08;;;14.40;;
35675;SDS011;21790;42.668;23.298;2023-03-14T07:11:20;26.77;;;14.40;;
35675;SDS011;21790;42.668;23.298;2023-03-14T07:13:46;31.17;;;13.95;;
35675;SDS011;21790;42.668;23.298;2023-03-14T07:16:11;24.55;;;14.05;;
35675;SDS011;21790;42.668;23.298;2023-03-14T07:18:37;27.35;;;13.43;;
35675;SDS011;21790;42.668;23.298;2023-03-14T07:21:03;19.13;;;9.95;;
35675;SDS011;21790;42.668;23.298;2023-03-14T07:23:29;19.17;;;9.77;;
35675;SDS011;21790;42.668;23.298;2023-03-14T07:25:55;18.92;;;9.10;;
35675;SDS011;21790;42.668;23.298;2023-03-14T07:28:21;20.48;;;9.98;;
35675;SDS011;21790;42.668;23.298;2023-03-14T07:30:48;16.95;;;10.27;;
35675;SDS011;21790;42.668;23.298;2023-03-14T07:33:14;28.80;;;10.20;;
35675;SDS011;21790;42.668;23.298;2023-03-14T07:35:40;21.63;;;10.40;;
35675;SDS011;21790;42.668;23.298;2023-03-14T07:38:05;13.52;;;9.23;;
35675;SDS011;21790;42.668;23.298;2023-03-14T07:40:31;20.63;;;9.70;;
35675;SDS011;21790;42.668;23.298;2023-03-14T07:42:56;16.75;;;10.15;;
35675;SDS011;21790;42.668;23.298;2023-03-14T07:45:22;22.98;;;10.77;;
35675;SDS011;21790;42.668;23.298;2023-03-14T07:47:48;24.75;;;10.20;;
35675;SDS011;21790;42.668;23.298;2023-03-14T07:50:14;14.60;;;8.85;;
35675;SDS011;21790;42.668;23.298;2023-03-14T07:52:39;17.27;;;9.48;;
35675;SDS011;21790;42.668;23.298;2023-03-14T07:55:05;21.90;;;10.60;;
35675;SDS011;21790;42.668;23.298;2023-03-14T07:57:31;20.08;;;11.43;;
35675;SDS011;21790;42.668;23.298;2023-03-14T07:59:57;21.38;;;11.50;;
35675;SDS011;21790;42.668;23.298;2023-03-14T08:02:23;25.00;;;13.00;;
35675;SDS011;21790;42.668;23.298;2023-03-14T08:04:49;20.95;;;12.88;;
35675;SDS011;21790;42.668;23.298;2023-03-14T08:07:15;27.85;;;13.90;;
35675;SDS011;21790;42.668;23.298;2023-03-14T08:09:41;23.60;;;12.68;;
35675;SDS011;21790;42.668;23.298;2023-03-14T08:12:07;22.10;;;11.85;;
35675;SDS011;21790;42.668;23.298;2023-03-14T08:14:33;22.25;;;13.43;;
35675;SDS011;21790;42.668;23.298;2023-03-14T08:16:58;32.20;;;14.32;;
35675;SDS011;21790;42.668;23.298;2023-03-14T08:19:24;29.17;;;13.77;;
35675;SDS011;21790;42.668;23.298;2023-03-14T08:21:50;30.70;;;13.75;;
35675;SDS011;21790;42.668;23.298;2023-03-14T08:24:16;28.08;;;12.45;;
35675;SDS011;21790;42.668;23.298;2023-03-14T08:26:42;24.73;;;14.27;;
35675;SDS011;21790;42.668;23.298;2023-03-14T08:29:07;23.95;;;13.57;;
35675;SDS011;21790;42.668;23.298;2023-03-14T08:31:34;29.17;;;14.68;;
35675;SDS011;21790;42.668;23.298;2023-03-14T08:34:01;25.95;;;13.23;;
35675;SDS011;21790;42.668;23.298;2023-03-14T08:36:27;23.63;;;14.75;;
35675;SDS011;21790;42.668;23.298;2023-03-14T08:38:53;28.05;;;15.50;;
35675;SDS011;21790;42.668;23.298;2023-03-14T08:41:20;27.15;;;14.45;;
35675;SDS011;21790;42.668;23.298;2023-03-14T08:43:46;30.35;;;14.50;;
35675;SDS011;21790;42.668;23.298;2023-03-14T08:46:13;29.25;;;14.55;;
35675;SDS011;21790;42.668;23.298;2023-03-14T08:48:40;26.73;;;13.32;;
35675;SDS011;21790;42.668;23.298;2023-03-14T08:51:08;23.58;;;12.15;;
35675;SDS011;21790;42.668;23.298;2023-03-14T08:53:36;26.60;;;12.82;;
35675;SDS011;21790;42.668;23.298;2023-03-14T08:56:03;21.45;;;12.55;;
35675;SDS011;21790;42.668;23.298;2023-03-14T08:58:31;28.30;;;12.68;;
35675;SDS011;21790;42.668;23.298;2023-03-14T09:00:57;27.33;;;12.73;;
35675;SDS011;21790;42.668;23.298;2023-03-14T09:03:23;27.33;;;13.88;;
35675;SDS011;21790;42.668;23.298;2023-03-14T09:05:50;22.20;;;12.75;;
35675;SDS011;21790;42.668;23.298;2023-03-14T09:08:20;28.45;;;13.48;;
35675;SDS011;21790;42.668;23.298;2023-03-14T09:10:46;25.92;;;11.65;;
35675;SDS011;21790;42.668;23.298;2023-03-14T09:13:16;21.05;;;11.95;;
35675;SDS011;21790;42.668;23.298;2023-03-14T09:15:50;26.70;;;11.75;;
35675;SDS011;21790;42.668;23.298;2023-03-14T09:18:19;22.50;;;11.45;;
35675;SDS011;21790;42.668;23.298;2023-03-14T09:20:46;20.30;;;11.23;;
35675;SDS011;21790;42.668;23.298;2023-03-14T09:23:11;22.15;;;10.88;;
35675;SDS011;21790;42.668;23.298;2023-03-14T09:25:37;21.13;;;11.55;;
35675;SDS011;21790;42.668;23.298;2023-03-14T09:28:03;24.23;;;11.73;;
35675;SDS011;21790;42.668;23.298;2023-03-14T09:30:29;23.63;;;11.00;;
35675;SDS011;21790;42.668;23.298;2023-03-14T09:32:54;17.05;;;10.43;;
35675;SDS011;21790;42.668;23.298;2023-03-14T09:35:20;22.05;;;10.23;;
35675;SDS011;21790;42.668;23.298;2023-03-14T09:37:45;21.90;;;11.15;;
35675;SDS011;21790;42.668;23.298;2023-03-14T09:40:17;20.58;;;9.65;;
35675;SDS011;21790;42.668;23.298;2023-03-14T09:42:45;16.63;;;9.18;;
35675;SDS011;21790;42.668;23.298;2023-03-14T09:45:29;28.95;;;8.88;;
35675;SDS011;21790;42.668;23.298;2023-03-14T09:47:58;11.02;;;7.82;;
35675;SDS011;21790;42.668;23.298;2023-03-14T09:50:27;12.95;;;8.45;;
35675;SDS011;21790;42.668;23.298;2023-03-14T09:53:02;13.65;;;8.60;;
35675;SDS011;21790;42.668;23.298;2023-03-14T09:55:32;19.40;;;10.05;;
35675;SDS011;21790;42.668;23.298;2023-03-14T09:58:00;15.82;;;8.80;;
35675;SDS011;21790;42.668;23.298;2023-03-14T10:00:35;15.85;;;9.02;;
35675;SDS011;21790;42.668;23.298;2023-03-14T10:03:46;15.18;;;8.38;;
35675;SDS011;21790;42.668;23.298;2023-03-14T10:05:52;12.85;;;8.35;;
35675;SDS011;21790;42.668;23.298;2023-03-14T10:08:19;15.40;;;8.52;;
35675;SDS011;21790;42.668;23.298;2023-03-14T10:10:45;14.38;;;9.27;;
35675;SDS011;21790;42.668;23.298;2023-03-14T10:15:40;17.42;;;8.68;;
35675;SDS011;21790;42.668;23.298;2023-03-14T10:18:10;16.50;;;8.88;;
35675;SDS011;21790;42.668;23.298;2023-03-14T10:20:44;19.58;;;8.82;;
35675;SDS011;21790;42.668;23.298;2023-03-14T10:25:37;12.52;;;8.18;;
35675;SDS011;21790;42.668;23.298;2023-03-14T10:28:26;16.75;;;8.10;;
35675;SDS011;21790;42.668;23.298;2023-03-14T10:30:54;16.90;;;8.57;;
35675;SDS011;21790;42.668;23.298;2023-03-14T10:33:25;13.90;;;8.48;;
35675;SDS011;21790;42.668;23.298;2023-03-14T10:36:00;15.43;;;8.65;;
35675;SDS011;21790;42.668;23.298;2023-03-14T10:38:32;164.98;;;31.42;;
35675;SDS011;21790;42.668;23.298;2023-03-14T10:41:00;23.42;;;9.15;;
35675;SDS011;21790;42.668;23.298;2023-03-14T10:43:32;17.80;;;8.88;;
35675;SDS011;21790;42.668;23.298;2023-03-14T10:46:08;13.57;;;8.88;;
35675;SDS011;21790;42.668;23.298;2023-03-14T10:48:36;14.55;;;8.57;;
35675;SDS011;21790;42.668;23.298;2023-03-14T10:51:06;16.52;;;8.93;;
35675;SDS011;21790;42.668;23.298;2023-03-14T10:56:13;17.65;;;9.32;;
35675;SDS011;21790;42.668;23.298;2023-03-14T10:58:43;19.42;;;9.68;;
35675;SDS011;21790;42.668;23.298;2023-03-14T11:04:08;11.95;;;6.95;;
35675;SDS011;21790;42.668;23.298;2023-03-14T11:07:03;13.00;;;7.57;;
35675;SDS011;21790;42.668;23.298;2023-03-14T11:14:59;11.50;;;7.03;;
35675;SDS011;21790;42.668;23.298;2023-03-14T11:25:43;15.48;;;6.03;;
35675;SDS011;21790;42.668;23.298;2023-03-14T11:28:23;9.82;;;5.72;;
35675;SDS011;21790;42.668;23.298;2023-03-14T11:33:45;8.82;;;5.00;;
35675;SDS011;21790;42.668;23.298;2023-03-14T11:39:18;8.48;;;4.88;;
35675;SDS011;21790;42.668;23.298;2023-03-14T11:41:57;7.57;;;4.05;;
35675;SDS011;21790;42.668;23.298;2023-03-14T11:44:48;6.28;;;3.42;;
35675;SDS011;21790;42.668;23.298;2023-03-14T11:47:19;9.00;;;4.70;;
35675;SDS011;21790;42.668;23.298;2023-03-14T11:50:02;8.23;;;4.28;;
35675;SDS011;21790;42.668;23.298;2023-03-14T11:52:48;12.07;;;4.55;;
35675;SDS011;21790;42.668;23.298;2023-03-14T11:55:30;9.30;;;3.88;;
35675;SDS011;21790;42.668;23.298;2023-03-14T12:00:54;9.05;;;3.88;;
35675;SDS011;21790;42.668;23.298;2023-03-14T12:03:43;6.78;;;3.50;;
35675;SDS011;21790;42.668;23.298;2023-03-14T12:09:03;8.77;;;4.22;;
35675;SDS011;21790;42.668;23.298;2023-03-14T12:19:40;9.80;;;3.58;;
35675;SDS011;21790;42.668;23.298;2023-03-14T12:22:08;5.70;;;3.60;;
35675;SDS011;21790;42.668;23.298;2023-03-14T12:24:49;8.13;;;3.42;;
35675;SDS011;21790;42.668;23.298;2023-03-14T12:27:38;6.32;;;4.18;;
35675;SDS011;21790;42.668;23.298;2023-03-14T12:30:13;11.50;;;3.35;;
35675;SDS011;21790;42.668;23.298;2023-03-14T12:32:43;6.43;;;3.42;;
35675;SDS011;21790;42.668;23.298;2023-03-14T12:35:38;11.90;;;3.85;;
35675;SDS011;21790;42.668;23.298;2023-03-14T12:38:04;12.88;;;3.38;;
35675;SDS011;21790;42.668;23.298;2023-03-14T12:43:37;7.55;;;3.38;;
35675;SDS011;21790;42.668;23.298;2023-03-14T12:48:34;11.77;;;4.00;;
35675;SDS011;21790;42.668;23.298;2023-03-14T12:51:03;8.25;;;3.40;;
35675;SDS011;21790;42.668;23.298;2023-03-14T13:02:18;6.55;;;3.00;;
35675;SDS011;21790;42.668;23.298;2023-03-14T13:05:10;5.55;;;2.65;;
35675;SDS011;21790;42.668;23.298;2023-03-14T13:15:42;11.52;;;2.80;;
35675;SDS011;21790;42.668;23.298;2023-03-14T13:21:03;3.72;;;2.42;;
35675;SDS011;21790;42.668;23.298;2023-03-14T13:23:40;9.82;;;2.90;;
35675;SDS011;21790;42.668;23.298;2023-03-14T13:26:09;5.15;;;2.90;;
35675;SDS011;21790;42.668;23.298;2023-03-14T13:28:39;5.18;;;2.20;;
35675;SDS011;21790;42.668;23.298;2023-03-14T13:31:18;9.02;;;3.40;;
35675;SDS011;21790;42.668;23.298;2023-03-14T13:33:59;4.18;;;2.08;;
35675;SDS011;21790;42.668;23.298;2023-03-14T13:36:35;4.38;;;2.38;;
35675;SDS011;21790;42.668;23.298;2023-03-14T13:39:17;3.03;;;2.13;;
35675;SDS011;21790;42.668;23.298;2023-03-14T13:41:47;5.28;;;2.53;;
35675;SDS011;21790;42.668;23.298;2023-03-14T13:44:15;5.00;;;2.60;;
35675;SDS011;21790;42.668;23.298;2023-03-14T13:46:44;4.38;;;2.58;;
35675;SDS011;21790;42.668;23.298;2023-03-14T13:49:17;4.53;;;2.47;;
35675;SDS011;21790;42.668;23.298;2023-03-14T13:51:55;6.53;;;2.22;;
35675;SDS011;21790;42.668;23.298;2023-03-14T13:54:21;5.15;;;2.45;;
35675;SDS011;21790;42.668;23.298;2023-03-14T13:56:48;7.05;;;2.33;;
35675;SDS011;21790;42.668;23.298;2023-03-14T13:59:27;5.80;;;2.42;;
35675;SDS011;21790;42.668;23.298;2023-03-14T14:01:58;4.70;;;2.15;;
35675;SDS011;21790;42.668;23.298;2023-03-14T14:04:38;4.07;;;1.90;;
35675;SDS011;21790;42.668;23.298;2023-03-14T14:07:09;5.95;;;2.25;;
35675;SDS011;21790;42.668;23.298;2023-03-14T14:09:47;5.65;;;2.28;;
35675;SDS011;21790;42.668;23.298;2023-03-14T14:12:21;5.25;;;2.55;;
35675;SDS011;21790;42.668;23.298;2023-03-14T14:14:58;6.10;;;2.28;;
35675;SDS011;21790;42.668;23.298;2023-03-14T14:17:31;6.13;;;2.40;;
35675;SDS011;21790;42.668;23.298;2023-03-14T14:20:33;4.75;;;1.90;;
35675;SDS011;21790;42.668;23.298;2023-03-14T14:25:58;7.30;;;2.17;;
35675;SDS011;21790;42.668;23.298;2023-03-14T14:28:32;4.97;;;2.10;;
35675;SDS011;21790;42.668;23.298;2023-03-14T14:31:20;2.90;;;2.05;;
35675;SDS011;21790;42.668;23.298;2023-03-14T14:34:02;3.93;;;2.50;;
35675;SDS011;21790;42.668;23.298;2023-03-14T14:36:44;5.65;;;2.17;;
35675;SDS011;21790;42.668;23.298;2023-03-14T14:39:20;3.17;;;1.85;;
35675;SDS011;21790;42.668;23.298;2023-03-14T14:41:52;2.97;;;1.85;;
35675;SDS011;21790;42.668;23.298;2023-03-14T14:44:27;3.42;;;2.00;;
35675;SDS011;21790;42.668;23.298;2023-03-14T14:46:59;8.27;;;2.17;;
35675;SDS011;21790;42.668;23.298;2023-03-14T14:49:31;5.50;;;2.17;;
35675;SDS011;21790;42.668;23.298;2023-03-14T14:52:14;8.88;;;1.95;;
35675;SDS011;21790;42.668;23.298;2023-03-14T14:57:26;7.55;;;2.20;;
35675;SDS011;21790;42.668;23.298;2023-03-14T15:00:09;4.40;;;2.20;;
35675;SDS011;21790;42.668;23.298;2023-03-14T15:02:46;3.08;;;2.10;;
35675;SDS011;21790;42.668;23.298;2023-03-14T15:05:24;5.32;;;2.47;;
35675;SDS011;21790;42.668;23.298;2023-03-14T15:07:55;4.90;;;1.90;;
35675;SDS011;21790;42.668;23.298;2023-03-14T15:10:24;5.03;;;2.00;;
35675;SDS011;21790;42.668;23.298;2023-03-14T15:12:51;7.03;;;2.08;;
35675;SDS011;21790;42.668;23.298;2023-03-14T15:15:20;7.32;;;2.08;;
35675;SDS011;21790;42.668;23.298;2023-03-14T15:17:46;4.32;;;2.13;;
35675;SDS011;21790;42.668;23.298;2023-03-14T15:20:13;5.00;;;1.80;;
35675;SDS011;21790;42.668;23.298;2023-03-14T15:22:41;3.03;;;1.75;;
35675;SDS011;21790;42.668;23.298;2023-03-14T15:25:09;3.60;;;2.30;;
35675;SDS011;21790;42.668;23.298;2023-03-14T15:27:36;2.72;;;1.80;;
35675;SDS011;21790;42.668;23.298;2023-03-14T15:30:14;3.83;;;2.00;;
35675;SDS011;21790;42.668;23.298;2023-03-14T15:32:42;3.30;;;1.98;;
35675;SDS011;21790;42.668;23.298;2023-03-14T15:35:11;3.05;;;2.13;;
35675;SDS011;21790;42.668;23.298;2023-03-14T15:37:39;4.85;;;2.17;;
35675;SDS011;21790;42.668;23.298;2023-03-14T15:40:10;2.95;;;1.92;;
35675;SDS011;21790;42.668;23.298;2023-03-14T15:42:40;4.20;;;2.20;;
35675;SDS011;21790;42.668;23.298;2023-03-14T15:45:06;6.47;;;2.45;;
35675;SDS011;21790;42.668;23.298;2023-03-14T15:47:34;4.78;;;2.35;;
35675;SDS011;21790;42.668;23.298;2023-03-14T15:50:03;4.57;;;2.30;;
35675;SDS011;21790;42.668;23.298;2023-03-14T15:52:40;9.93;;;2.70;;